Terminal Aerodrome Forecast
Issued by NWS Binghamton, NY

Home | Current Version | Previous Version | Text Only | Print | Product List | Glossary On
Versions: 1 2 3 4 5 6 7 8 9 10 11 12 13 14 15 16 17 18 19 20 21 22
201
FTUS41 KBGM 301739
TAFAVP
TAF
KAVP 301739Z 3018/3118 12007KT P6SM SCT015 OVC035
      TEMPO 3018/3022 3SM TSRA BR OVC015CB
     FM302200 VRB03KT 5SM -SHRA BR OVC025
     FM310300 12005KT 3SM -SHRA BR OVC018
      TEMPO 3105/3109 2SM SHRA BR OVC008
     FM311500 23005KT 5SM HZ OVC025=

USA.gov is the U.S. government's official web portal to all federal, state and local government web resources and services.